Terminal Aerodrome Forecast
Issued by NWS Shreveport, LA

Current Version | Previous Version | Text Only | Print | Product List | Glossary On
Versions: 1 2 3 4 5 6 7 8 9 10 11 12 13 14 15 16
000
FTUS44 KSHV 011700
TAFELD
TAF
KELD 011720Z 0118/0218 17010KT P6SM SCT030 BKN050
     FM020000 15004KT P6SM SCT040
     FM021000 18003KT 5SM BR BKN020
      TEMPO 0211/0214 2SM BR OVC012
     FM021500 18007KT P6SM BKN030=

USA.gov is the U.S. government's official web portal to all federal, state and local government web resources and services.